createdAt,value
2022-11-02T00:00:13.413Z,101176.53
2022-11-02T00:01:21.688Z,101178.22
2022-11-02T00:02:24.308Z,101172.03
2022-11-02T00:03:25.895Z,101172.03
2022-11-02T00:04:28.466Z,101170.22
2022-11-02T00:05:30.991Z,101169.38
2022-11-02T00:06:33.568Z,101169.22
2022-11-02T00:07:35.061Z,101172.59
2022-11-02T00:08:37.531Z,101176.25
2022-11-02T00:09:39.233Z,101181.59
2022-11-02T00:10:43.078Z,101184.25
2022-11-02T00:11:44.673Z,101177.09
2022-11-02T00:12:47.546Z,101170.91
2022-11-02T00:13:49.130Z,101173.44
2022-11-02T00:14:51.640Z,101175.28
2022-11-02T00:15:53.226Z,101175.28
2022-11-02T00:16:55.819Z,101172.59
2022-11-02T00:19:08.581Z,101171.59
2022-11-02T00:20:12.388Z,101170.78
2022-11-02T00:21:16.404Z,101171.59
2022-11-02T00:22:17.987Z,101176.13
2022-11-02T00:23:20.538Z,101176.25
2022-11-02T00:24:22.717Z,101179.59
2022-11-02T00:25:26.943Z,101175.28
2022-11-02T00:26:29.924Z,101172.59
2022-11-02T00:27:32.876Z,101172.59
2022-11-02T00:28:34.615Z,101172.59
2022-11-02T00:29:37.219Z,101173.31
2022-11-02T00:30:38.855Z,101172.44
2022-11-02T00:31:41.389Z,101169.78
2022-11-02T00:32:42.936Z,101172.44
2022-11-02T00:33:45.515Z,101177.66
2022-11-02T00:34:47.077Z,101175.84
2022-11-02T00:35:50.112Z,101172.31
2022-11-02T00:36:55.556Z,101177.66
2022-11-02T00:37:59.649Z,101174.00
2022-11-02T00:39:01.196Z,101176.66
2022-11-02T00:40:05.222Z,101182.72
2022-11-02T00:41:06.770Z,101177.41
2022-11-02T00:42:11.119Z,101179.09
2022-11-02T00:43:12.799Z,101177.41
2022-11-02T00:44:15.370Z,101176.53
2022-11-02T00:45:17.359Z,101181.75
2022-11-02T00:46:20.118Z,101174.72
2022-11-02T00:47:21.830Z,101175.56
2022-11-02T00:48:24.345Z,101178.25
2022-11-02T00:49:25.886Z,101179.09
2022-11-02T00:50:28.449Z,101176.28
2022-11-02T00:51:30.113Z,101179.78
2022-11-02T00:52:32.618Z,101179.78
2022-11-02T00:53:34.141Z,101178.81
2022-11-02T00:54:36.804Z,101173.47
2022-11-02T00:55:38.349Z,101168.94
2022-11-02T00:56:40.864Z,101172.47
2022-11-02T00:57:44.202Z,101181.22
2022-11-02T00:58:46.725Z,101180.34
2022-11-02T00:59:48.477Z,101187.53
2022-11-02T01:00:51.009Z,101182.06
2022-11-02T01:01:52.669Z,101185.53
2022-11-02T01:02:56.027Z,101184.72
2022-11-02T01:03:57.838Z,101180.22
2022-11-02T01:05:00.393Z,101183.88
2022-11-02T01:06:08.813Z,101182.31
2022-11-02T01:07:12.380Z,101183.44
2022-11-02T01:08:13.927Z,101184.44
2022-11-02T01:09:16.972Z,101197.06
2022-11-02T01:10:18.619Z,101183.00
2022-11-02T01:11:23.399Z,101186.66
2022-11-02T01:12:25.112Z,101184.13
2022-11-02T01:13:29.011Z,101182.44
2022-11-02T01:14:30.691Z,101181.59
2022-11-02T01:15:33.212Z,101180.72
2022-11-02T01:16:34.843Z,101189.59
2022-11-02T01:17:37.655Z,101193.09
2022-11-02T01:18:40.807Z,101186.91
2022-11-02T01:19:43.332Z,101191.28
2022-11-02T01:20:44.829Z,101190.28
2022-11-02T01:21:47.294Z,101190.28
2022-11-02T01:22:48.827Z,101186.66
2022-11-02T01:23:51.619Z,101181.31
2022-11-02T01:24:53.286Z,101191.72
2022-11-02T01:25:55.816Z,101182.72
2022-11-02T01:26:57.360Z,101181.59
2022-11-02T01:27:59.857Z,101183.16
2022-11-02T01:29:02.739Z,101179.38
2022-11-02T01:30:06.434Z,101177.41
2022-11-02T01:31:09.300Z,101181.63
2022-11-02T01:32:11.950Z,101182.34
2022-11-02T01:33:13.470Z,101183.06
2022-11-02T01:34:16.348Z,101179.41
2022-11-02T01:35:17.934Z,101182.88
2022-11-02T01:37:27.796Z,101181.06
2022-11-02T01:38:31.375Z,101173.91
2022-11-02T01:39:32.974Z,101173.22
2022-11-02T01:40:36.415Z,101171.69
2022-11-02T01:41:38.543Z,101178.97
2022-11-02T01:42:41.013Z,101179.13
2022-11-02T01:43:43.982Z,101179.22
2022-11-02T01:44:47.876Z,101185.53
2022-11-02T01:45:52.261Z,101186.53
2022-11-02T01:46:58.638Z,101180.22
2022-11-02T01:48:00.301Z,101186.41
2022-11-02T01:49:06.322Z,101182.88
2022-11-02T01:50:12.371Z,101170.38
2022-11-02T01:51:19.075Z,101188.94
2022-11-02T01:52:24.450Z,101173.78
2022-11-02T01:53:27.073Z,101187.13
2022-11-02T01:54:32.067Z,101192.59
2022-11-02T01:55:35.695Z,101178.53
2022-11-02T01:56:39.576Z,101184.97
2022-11-02T01:57:45.260Z,101184.44
2022-11-02T01:58:57.677Z,101174.00
2022-11-02T02:00:05.790Z,101180.47
2022-11-02T02:01:08.183Z,101187.88
2022-11-02T02:02:18.288Z,101183.84
2022-11-02T02:03:21.324Z,101191.09
2022-11-02T02:04:24.589Z,101183.25
2022-11-02T02:05:26.509Z,101187.00
2022-11-02T02:06:29.380Z,101188.00
2022-11-02T02:07:32.944Z,101196.13
2022-11-02T02:08:39.296Z,101183.75
2022-11-02T02:09:41.341Z,101188.28
2022-11-02T02:10:43.811Z,101195.56
2022-11-02T02:11:45.521Z,101193.03
2022-11-02T02:12:49.064Z,101193.16
2022-11-02T02:13:51.245Z,101194.97
2022-11-02T02:14:54.557Z,101191.47
2022-11-02T02:16:09.009Z,101187.13
2022-11-02T02:17:24.631Z,101196.09
2022-11-02T02:18:33.053Z,101185.72
2022-11-02T02:19:45.479Z,101188.53
2022-11-02T02:21:22.099Z,101190.47
2022-11-02T02:22:52.508Z,101191.31
2022-11-02T02:24:23.071Z,101189.63
2022-11-02T02:25:41.464Z,101181.50
2022-11-02T02:27:01.476Z,101184.84
2022-11-02T02:28:19.620Z,101192.75
2022-11-02T02:29:25.407Z,101194.28
2022-11-02T02:30:28.942Z,101185.16
2022-11-02T02:31:37.652Z,101186.84
2022-11-02T02:32:49.186Z,101182.22
2022-11-02T02:33:59.074Z,101180.28
2022-11-02T02:35:08.957Z,101185.47
2022-11-02T02:36:17.233Z,101184.34
2022-11-02T02:37:25.135Z,101195.75
2022-11-02T02:38:33.501Z,101184.06
2022-11-02T02:39:41.912Z,101191.09
2022-11-02T02:40:50.939Z,101193.66
2022-11-02T02:41:59.720Z,101180.44
2022-11-02T02:43:09.427Z,101191.09
2022-11-02T02:44:17.735Z,101180.44
2022-11-02T02:45:25.499Z,101181.28
2022-11-02T02:46:34.571Z,101176.06
2022-11-02T02:47:44.257Z,101186.91
2022-11-02T02:48:48.480Z,101189.69
2022-11-02T02:49:54.644Z,101181.94
2022-11-02T02:51:02.007Z,101184.88
2022-11-02T02:52:07.294Z,101181.53
2022-11-02T02:53:10.152Z,101194.13
2022-11-02T02:54:17.910Z,101190.78
2022-11-02T02:55:23.787Z,101192.75
2022-11-02T02:56:30.581Z,101198.34
2022-11-02T02:57:35.021Z,101197.63
2022-11-02T02:58:43.686Z,101193.56
2022-11-02T02:59:48.554Z,101200.69
2022-11-02T03:00:52.893Z,101199.84
2022-11-02T03:01:55.647Z,101206.16
2022-11-02T03:03:02.259Z,101201.09
2022-11-02T03:04:04.016Z,101203.75
2022-11-02T03:05:23.284Z,101202.06
2022-11-02T03:06:31.245Z,101198.56
2022-11-02T03:07:34.469Z,101209.34
2022-11-02T03:08:39.365Z,101208.38
2022-11-02T03:09:44.397Z,101210.22
2022-11-02T03:10:51.385Z,101215.41
2022-11-02T03:12:05.608Z,101207.38
2022-11-02T03:13:21.442Z,101203.06
2022-11-02T03:14:35.526Z,101215.41
2022-11-02T03:15:42.566Z,101212.88
2022-11-02T03:18:14.559Z,101205.25
2022-11-02T03:19:23.056Z,101215.06
2022-11-02T03:20:30.698Z,101208.06
2022-11-02T03:21:38.870Z,101214.25
2022-11-02T03:22:52.971Z,101216.94
2022-11-02T03:24:00.529Z,101212.56
2022-11-02T03:25:16.056Z,101212.56
2022-11-02T03:26:23.015Z,101217.03
2022-11-02T03:27:35.483Z,101222.50
2022-11-02T03:28:54.955Z,101224.47
2022-11-02T03:30:06.326Z,101225.44
2022-11-02T03:31:13.399Z,101230.75
2022-11-02T03:32:24.705Z,101225.69
2022-11-02T03:33:32.776Z,101229.31
2022-11-02T03:34:39.983Z,101232.97
2022-11-02T03:35:47.497Z,101225.94
2022-11-02T03:36:53.242Z,101230.41
2022-11-02T03:38:00.852Z,101229.59
2022-11-02T03:39:08.340Z,101231.41
2022-11-02T03:40:14.813Z,101234.19
2022-11-02T03:41:18.795Z,101232.50
2022-11-02T03:42:27.078Z,101233.59
2022-11-02T03:43:29.625Z,101236.41
2022-11-02T03:44:38.114Z,101232.03
2022-11-02T03:45:43.482Z,101238.34
2022-11-02T03:46:50.602Z,101253.38
2022-11-02T03:47:55.184Z,101246.34
2022-11-02T03:48:58.137Z,101246.34
2022-11-02T03:50:02.110Z,101253.50
2022-11-02T03:51:09.950Z,101248.31
2022-11-02T03:52:16.693Z,101250.13
2022-11-02T03:53:23.594Z,101259.94
2022-11-02T03:54:33.894Z,101258.25
2022-11-02T03:55:41.869Z,101253.91
2022-11-02T03:56:46.466Z,101260.19
2022-11-02T03:57:51.650Z,101261.16
2022-11-02T03:58:53.289Z,101268.44
2022-11-02T04:00:07.799Z,101264.81
2022-11-02T04:01:11.267Z,101260.47
2022-11-02T04:02:16.047Z,101264.94
2022-11-02T04:03:19.657Z,101268.59
2022-11-02T04:04:22.215Z,101270.41
2022-11-02T04:05:28.511Z,101265.09
2022-11-02T04:06:31.156Z,101272.34
2022-11-02T04:07:55.403Z,101275.00
2022-11-02T04:09:01.150Z,101282.31
2022-11-02T04:10:02.647Z,101273.44
2022-11-02T04:11:24.995Z,101281.59
2022-11-02T04:12:45.363Z,101288.59
2022-11-02T04:14:05.586Z,101280.75
2022-11-02T04:15:09.847Z,101281.81
2022-11-02T04:16:11.390Z,101290.81
2022-11-02T04:17:33.077Z,101289.09
2022-11-02T04:18:53.112Z,101292.75
2022-11-02T04:19:56.726Z,101294.44
2022-11-02T04:20:58.245Z,101288.41
2022-11-02T04:22:18.543Z,101291.06
2022-11-02T04:23:38.777Z,101286.69
2022-11-02T04:24:59.649Z,101286.97
2022-11-02T04:26:02.259Z,101290.59
2022-11-02T04:27:03.845Z,101287.91
2022-11-02T04:28:10.303Z,101292.41
2022-11-02T04:29:12.126Z,101291.59
2022-11-02T04:30:16.370Z,101294.34
2022-11-02T04:31:17.881Z,101295.22
2022-11-02T04:32:35.687Z,101300.53
2022-11-02T04:33:38.211Z,101305.88
2022-11-02T04:34:39.781Z,101305.88
2022-11-02T04:35:41.337Z,101302.47
2022-11-02T04:36:44.437Z,101314.81
2022-11-02T04:38:04.974Z,101310.47
2022-11-02T04:39:06.770Z,101314.13
2022-11-02T04:40:09.262Z,101307.78
2022-11-02T04:41:31.490Z,101307.78
2022-11-02T04:42:34.043Z,101312.31
2022-11-02T04:43:36.534Z,101326.44
2022-11-02T04:44:39.024Z,101317.63
2022-11-02T04:45:40.574Z,101320.28
2022-11-02T04:46:44.769Z,101322.13
2022-11-02T04:47:47.686Z,101331.91
2022-11-02T04:48:50.444Z,101327.44
2022-11-02T04:49:52.001Z,101332.75
2022-11-02T04:50:55.199Z,101331.06
2022-11-02T04:51:56.756Z,101327.44
2022-11-02T04:52:59.759Z,101325.75
2022-11-02T04:54:01.647Z,101331.91
2022-11-02T04:55:04.228Z,101335.69
2022-11-02T04:56:06.456Z,101339.19
2022-11-02T04:57:08.968Z,101338.34
2022-11-02T04:58:10.481Z,101346.19
2022-11-02T04:59:13.071Z,101342.69
2022-11-02T05:00:15.844Z,101340.03
2022-11-02T05:01:19.932Z,101343.53
2022-11-02T05:02:21.855Z,101345.25
2022-11-02T05:03:25.823Z,101344.38
2022-11-02T05:04:27.629Z,101336.41
2022-11-02T05:05:30.221Z,101339.75
2022-11-02T05:06:31.735Z,101337.84
2022-11-02T05:07:34.185Z,101344.72
2022-11-02T05:08:36.981Z,101345.44
2022-11-02T05:09:42.163Z,101347.03
2022-11-02T05:10:43.707Z,101349.56
2022-11-02T05:11:46.162Z,101345.78
2022-11-02T05:12:47.715Z,101342.16
2022-11-02T05:13:51.985Z,101352.81
2022-11-02T05:14:53.519Z,101350.28
2022-11-02T05:15:56.519Z,101349.44
2022-11-02T05:16:58.468Z,101349.44
2022-11-02T05:18:01.104Z,101358.28
2022-11-02T05:19:06.912Z,101348.44
2022-11-02T05:20:12.570Z,101354.53
2022-11-02T05:21:14.100Z,101357.88
2022-11-02T05:22:16.872Z,101362.13
2022-11-02T05:23:18.929Z,101354.00
2022-11-02T05:24:21.428Z,101353.03
2022-11-02T05:25:23.039Z,101354.72
2022-11-02T05:26:25.566Z,101359.09
2022-11-02T05:27:27.054Z,101366.38
2022-11-02T05:28:31.618Z,101351.34
2022-11-02T05:29:33.154Z,101361.28
2022-11-02T05:30:35.775Z,101362.25
2022-11-02T05:31:37.384Z,101364.06
2022-11-02T05:32:39.987Z,101363.22
2022-11-02T05:33:41.522Z,101363.22
2022-11-02T05:34:45.368Z,101361.41
2022-11-02T05:35:47.791Z,101368.56
2022-11-02T05:36:50.614Z,101370.50
2022-11-02T05:37:55.133Z,101363.47
2022-11-02T05:38:57.890Z,101368.09
2022-11-02T05:39:59.445Z,101367.34
2022-11-02T05:41:01.968Z,101369.44
2022-11-02T05:42:03.802Z,101374.91
2022-11-02T05:43:06.712Z,101377.66
2022-11-02T05:44:08.765Z,101375.16
2022-11-02T05:45:11.690Z,101375.16
2022-11-02T05:46:14.904Z,101373.44
2022-11-02T05:47:17.443Z,101377.06
2022-11-02T05:48:19.028Z,101372.72
2022-11-02T05:49:21.662Z,101373.69
2022-11-02T05:50:24.505Z,101373.84
2022-11-02T05:51:27.020Z,101380.97
2022-11-02T05:52:28.765Z,101386.31
2022-11-02T05:53:32.552Z,101387.16
2022-11-02T05:54:35.062Z,101389.81
2022-11-02T05:55:36.556Z,101396.97
2022-11-02T05:56:39.125Z,101391.63
2022-11-02T05:57:40.681Z,101397.94
2022-11-02T05:58:43.422Z,101391.88
2022-11-02T05:59:48.290Z,101400.00
2022-11-02T06:00:55.137Z,101393.81
2022-11-02T06:01:56.761Z,101399.28
2022-11-02T06:02:59.606Z,101399.38
2022-11-02T06:04:01.107Z,101401.19
2022-11-02T06:05:03.796Z,101405.81
2022-11-02T06:06:10.329Z,101399.63
2022-11-02T06:07:13.216Z,101402.56
2022-11-02T06:08:14.722Z,101399.19
2022-11-02T06:09:17.199Z,101396.50
2022-11-02T06:10:18.889Z,101406.31
2022-11-02T06:11:21.726Z,101408.13
2022-11-02T06:12:23.290Z,101409.09
2022-11-02T06:13:25.862Z,101419.03
2022-11-02T06:14:27.512Z,101408.22
2022-11-02T06:15:32.216Z,101403.03
2022-11-02T06:16:34.039Z,101414.66
2022-11-02T06:17:39.770Z,101414.66
2022-11-02T06:18:41.418Z,101415.75
2022-11-02T06:19:43.873Z,101420.22
2022-11-02T06:20:45.398Z,101414.91
2022-11-02T06:21:49.637Z,101415.88
2022-11-02T06:22:51.636Z,101415.16
2022-11-02T06:23:54.566Z,101423.13
2022-11-02T06:24:56.103Z,101426.75
2022-11-02T06:26:00.149Z,101429.44
2022-11-02T06:27:02.613Z,101421.56
2022-11-02T06:28:04.475Z,101431.38
2022-11-02T06:29:07.181Z,101430.53
2022-11-02T06:30:09.767Z,101434.16
2022-11-02T06:31:12.538Z,101441.31
2022-11-02T06:32:14.185Z,101433.44
2022-11-02T06:33:17.738Z,101436.94
2022-11-02T06:34:19.255Z,101442.28
2022-11-02T06:35:23.336Z,101446.75
2022-11-02T06:36:25.951Z,101443.22
2022-11-02T06:37:31.393Z,101445.19
2022-11-02T06:38:34.061Z,101446.88
2022-11-02T06:40:44.140Z,101462.13
2022-11-02T06:41:46.716Z,101451.47
2022-11-02T06:43:03.472Z,101456.78
2022-11-02T06:44:10.795Z,101468.41
2022-11-02T06:45:12.428Z,101468.41
2022-11-02T06:46:15.271Z,101467.44
2022-11-02T06:47:16.812Z,101471.81
2022-11-02T06:48:19.454Z,101476.19
2022-11-02T06:49:22.453Z,101469.75
2022-11-02T06:50:24.872Z,101477.59
2022-11-02T06:51:27.394Z,101473.75
2022-11-02T06:52:30.500Z,101475.44
2022-11-02T06:53:33.386Z,101477.13
2022-11-02T06:54:34.921Z,101484.16
2022-11-02T06:55:37.392Z,101485.00
2022-11-02T06:56:40.007Z,101485.84
2022-11-02T06:57:42.482Z,101493.72
2022-11-02T06:58:45.076Z,101499.91
2022-11-02T06:59:50.038Z,101496.28
2022-11-02T07:00:58.913Z,101495.19
2022-11-02T07:02:00.777Z,101503.91
2022-11-02T07:03:05.404Z,101508.16
2022-11-02T07:04:08.124Z,101507.16
2022-11-02T07:05:09.873Z,101509.81
2022-11-02T07:06:14.661Z,101506.19
2022-11-02T07:07:19.102Z,101511.53
2022-11-02T07:08:24.070Z,101517.69
2022-11-02T07:09:25.636Z,101522.19
2022-11-02T07:10:30.197Z,101518.56
2022-11-02T07:11:31.820Z,101528.97
2022-11-02T07:12:34.514Z,101528.97
2022-11-02T07:13:36.041Z,101527.03
2022-11-02T07:14:38.641Z,101528.72
2022-11-02T07:15:40.441Z,101535.75
2022-11-02T07:16:42.952Z,101533.09
2022-11-02T07:17:44.535Z,101542.75
2022-11-02T07:18:47.035Z,101542.75
2022-11-02T07:19:48.573Z,101541.09
2022-11-02T07:20:51.152Z,101546.53
2022-11-02T07:21:52.702Z,101543.00
2022-11-02T07:22:56.983Z,101545.81
2022-11-02T07:23:59.896Z,101543.25
2022-11-02T07:25:02.397Z,101552.22
2022-11-02T07:26:04.933Z,101543.50
2022-11-02T07:27:07.725Z,101551.47
2022-11-02T07:28:10.059Z,101557.78
2022-11-02T07:29:13.848Z,101561.44
2022-11-02T07:30:15.580Z,101555.25
2022-11-02T07:31:18.074Z,101556.09
2022-11-02T07:32:20.822Z,101565.91
2022-11-02T07:33:22.439Z,101570.38
2022-11-02T07:34:24.977Z,101560.56
2022-11-02T07:35:26.539Z,101571.22
2022-11-02T07:36:29.022Z,101571.22
2022-11-02T07:37:30.592Z,101572.94
2022-11-02T07:38:33.252Z,101579.94
2022-11-02T07:39:37.161Z,101588.78
2022-11-02T07:40:38.973Z,101586.13
2022-11-02T07:41:42.421Z,101590.50
2022-11-02T07:42:45.258Z,101591.22
2022-11-02T07:43:47.724Z,101591.22
2022-11-02T07:44:49.267Z,101592.91
2022-11-02T07:45:51.767Z,101593.88
2022-11-02T07:46:54.337Z,101594.63
2022-11-02T07:47:56.021Z,101589.28
2022-11-02T07:48:58.720Z,101594.47
2022-11-02T07:50:01.999Z,101607.81
2022-11-02T07:51:05.695Z,101606.84
2022-11-02T07:52:08.280Z,101603.34
2022-11-02T07:53:11.041Z,101608.66
2022-11-02T07:54:13.778Z,101621.97
2022-11-02T07:55:19.969Z,101621.03
2022-11-02T07:56:22.430Z,101618.38
2022-11-02T07:57:24.034Z,101612.03
2022-11-02T07:58:26.922Z,101627.19
2022-11-02T07:59:28.462Z,101631.44
2022-11-02T08:00:33.517Z,101626.13
2022-11-02T08:01:36.287Z,101625.13
2022-11-02T08:02:38.438Z,101634.97
2022-11-02T08:03:41.918Z,101634.09
2022-11-02T08:04:45.071Z,101629.50
2022-11-02T08:05:47.998Z,101632.16
2022-11-02T08:06:52.259Z,101634.81
2022-11-02T08:07:57.627Z,101647.19
2022-11-02T08:09:00.130Z,101631.22
2022-11-02T08:10:02.683Z,101635.53
2022-11-02T08:11:09.519Z,101642.72
2022-11-02T08:12:11.142Z,101639.91
2022-11-02T08:13:15.612Z,101635.44
2022-11-02T08:14:17.158Z,101644.28
2022-11-02T08:15:20.068Z,101640.66
2022-11-02T08:16:22.598Z,101638.81
2022-11-02T08:17:24.383Z,101642.34
2022-11-02T08:18:28.801Z,101641.38
2022-11-02T08:19:30.633Z,101640.44
2022-11-02T08:20:35.573Z,101639.44
2022-11-02T08:21:38.107Z,101639.44
2022-11-02T08:22:40.316Z,101634.09
2022-11-02T08:23:42.816Z,101637.53
2022-11-02T08:24:44.442Z,101645.38
2022-11-02T08:25:48.521Z,101640.06
2022-11-02T08:26:54.783Z,101640.91
2022-11-02T08:27:58.051Z,101638.97
2022-11-02T08:29:00.681Z,101644.28
2022-11-02T08:30:02.423Z,101641.53
2022-11-02T08:31:05.281Z,101645.91
2022-11-02T08:32:06.921Z,101649.28
2022-11-02T08:33:15.366Z,101644.56
2022-11-02T08:34:17.835Z,101652.44
2022-11-02T08:35:19.521Z,101644.31
2022-11-02T08:36:22.032Z,101654.88
2022-11-02T08:37:23.584Z,101658.38
2022-11-02T08:38:26.192Z,101653.78
2022-11-02T08:39:27.743Z,101652.69
2022-11-02T08:40:30.554Z,101653.53
2022-11-02T08:41:32.055Z,101656.91
2022-11-02T08:42:38.865Z,101644.34
2022-11-02T08:43:41.363Z,101654.16
2022-11-02T08:44:43.388Z,101647.72
2022-11-02T08:47:09.604Z,101648.81
2022-11-02T08:48:12.746Z,101650.28
2022-11-02T08:49:18.437Z,101661.78
2022-11-02T08:50:20.489Z,101665.19
2022-11-02T08:51:23.002Z,101667.72
2022-11-02T08:52:24.701Z,101663.22
2022-11-02T08:53:27.523Z,101652.56
2022-11-02T08:54:29.083Z,101656.09
2022-11-02T08:55:32.232Z,101668.34
2022-11-02T08:56:34.829Z,101657.69
2022-11-02T08:57:45.887Z,101661.97
2022-11-02T08:58:48.467Z,101670.06
2022-11-02T08:59:49.991Z,101674.31
2022-11-02T09:00:54.157Z,101675.06
2022-11-02T09:01:56.089Z,101667.75
2022-11-02T09:03:00.469Z,101677.34
2022-11-02T09:04:03.066Z,101677.84
2022-11-02T09:05:05.464Z,101682.94
2022-11-02T09:06:08.265Z,101687.16
2022-11-02T09:07:10.744Z,101689.72
2022-11-02T09:08:14.199Z,101683.41
2022-11-02T09:09:16.736Z,101684.25
2022-11-02T09:10:18.262Z,101678.81
2022-11-02T09:11:20.760Z,101684.00
2022-11-02T09:12:22.308Z,101691.91
2022-11-02T09:13:26.260Z,101678.31
2022-11-02T09:14:29.124Z,101683.50
2022-11-02T09:15:32.805Z,101684.50
2022-11-02T09:16:41.090Z,101680.00
2022-11-02T09:17:45.866Z,101682.66
2022-11-02T09:18:48.449Z,101680.84
2022-11-02T09:19:49.988Z,101682.56
2022-11-02T09:20:55.710Z,101690.56
2022-11-02T09:21:59.578Z,101687.03
2022-11-02T09:23:02.465Z,101682.56
2022-11-02T09:24:05.695Z,101693.09
2022-11-02T09:25:10.367Z,101697.47
2022-11-02T09:26:12.883Z,101688.34
2022-11-02T09:27:15.549Z,101698.91
2022-11-02T09:28:17.152Z,101704.13
2022-11-02T09:29:21.268Z,101712.97
2022-11-02T09:30:23.670Z,101697.97
2022-11-02T09:31:26.297Z,101702.31
2022-11-02T09:32:28.143Z,101696.97
2022-11-02T09:33:32.195Z,101707.63
2022-11-02T09:34:33.775Z,101707.78
2022-11-02T09:35:38.315Z,101721.13
2022-11-02T09:36:40.970Z,101708.88
2022-11-02T09:37:48.357Z,101707.03
2022-11-02T09:38:53.696Z,101706.31
2022-11-02T09:39:55.586Z,101708.13
2022-11-02T09:41:08.727Z,101707.28
2022-11-02T09:42:23.564Z,101715.91
2022-11-02T09:43:38.631Z,101703.31
2022-11-02T09:44:52.635Z,101702.31
2022-11-02T09:45:59.027Z,101699.28
2022-11-02T09:47:55.958Z,101704.25
2022-11-02T09:48:39.993Z,101709.34
2022-11-02T09:49:49.035Z,101714.56
2022-11-02T09:51:06.423Z,101710.06
2022-11-02T09:52:15.018Z,101705.34
2022-11-02T09:53:34.325Z,101707.03
2022-11-02T09:54:51.478Z,101705.94
2022-11-02T09:56:04.649Z,101704.72
2022-11-02T09:57:12.439Z,101710.53
2022-11-02T09:58:30.976Z,101716.34
2022-11-02T09:59:44.940Z,101714.84
2022-11-02T10:01:04.027Z,101707.34
2022-11-02T10:02:19.517Z,101717.78
2022-11-02T10:03:44.521Z,101714.94
2022-11-02T10:05:19.854Z,101714.25
2022-11-02T10:06:26.594Z,101712.69
2022-11-02T10:07:51.753Z,101708.19
2022-11-02T10:09:06.376Z,101712.94
2022-11-02T10:10:23.569Z,101708.09
2022-11-02T10:11:48.030Z,101716.47
2022-11-02T10:13:03.583Z,101710.53
2022-11-02T10:14:14.621Z,101708.97
2022-11-02T10:15:27.407Z,101709.22
2022-11-02T10:16:47.536Z,101711.88
2022-11-02T10:18:01.599Z,101721.44
2022-11-02T10:19:12.353Z,101719.63
2022-11-02T10:20:27.485Z,101716.97
2022-11-02T10:21:34.523Z,101712.47
2022-11-02T10:22:48.587Z,101718.69
2022-11-02T10:24:10.109Z,101719.50
2022-11-02T10:25:23.232Z,101721.19
2022-11-02T10:26:35.265Z,101722.91
2022-11-02T10:27:51.143Z,101722.91
2022-11-02T10:29:00.086Z,101729.94
2022-11-02T10:30:14.205Z,101724.47
2022-11-02T10:31:33.372Z,101717.06
2022-11-02T10:32:41.023Z,101715.09
2022-11-02T10:33:52.941Z,101716.81
2022-11-02T10:35:17.563Z,101720.19
2022-11-02T10:36:39.759Z,101723.63
2022-11-02T10:38:02.033Z,101727.00
2022-11-02T10:39:25.225Z,101725.06
2022-11-02T10:40:45.499Z,101732.94
2022-11-02T10:42:11.776Z,101732.09
2022-11-02T10:43:30.122Z,101732.09
2022-11-02T10:44:58.988Z,101727.59
2022-11-02T10:46:29.632Z,101730.41
2022-11-02T10:47:45.817Z,101726.75
2022-11-02T10:49:01.671Z,101731.22
2022-11-02T10:50:30.316Z,101732.81
2022-11-02T10:51:35.576Z,101731.84
2022-11-02T10:52:45.808Z,101732.69
2022-11-02T10:53:54.185Z,101733.53
2022-11-02T10:54:57.677Z,101729.91
2022-11-02T10:56:16.456Z,101737.91
2022-11-02T10:57:29.059Z,101729.06
2022-11-02T10:58:46.811Z,101731.84
2022-11-02T11:00:23.835Z,101726.50
2022-11-02T11:01:27.975Z,101732.69
2022-11-02T11:02:33.386Z,101724.81
2022-11-02T11:04:00.691Z,101723.97
2022-11-02T11:05:13.278Z,101731.84
2022-11-02T11:06:18.426Z,101727.34
2022-11-02T11:07:29.388Z,101731.56
2022-11-02T11:08:42.202Z,101720.91
2022-11-02T11:09:51.215Z,101733.03
2022-11-02T11:10:53.106Z,101731.94
2022-11-02T11:12:05.183Z,101730.09
2022-11-02T11:16:32.278Z,101739.56
2022-11-02T11:20:56.761Z,101742.97
2022-11-02T11:22:23.336Z,101748.09
2022-11-02T11:23:27.931Z,101743.59
2022-11-02T11:24:36.031Z,101750.53
2022-11-02T11:25:40.872Z,101744.19
2022-11-02T11:26:44.388Z,101748.56
2022-11-02T11:27:56.974Z,101752.94
2022-11-02T11:28:59.612Z,101733.25
2022-11-02T11:30:03.649Z,101747.34
2022-11-02T11:31:16.650Z,101734.94
2022-11-02T11:32:24.597Z,101739.34
2022-11-02T11:33:44.971Z,101728.66
2022-11-02T11:35:02.039Z,101739.19
2022-11-02T11:36:09.559Z,101736.25
2022-11-02T11:37:17.109Z,101743.16
2022-11-02T11:38:22.686Z,101742.09
2022-11-02T11:39:30.163Z,101746.31
2022-11-02T11:40:38.204Z,101732.00
2022-11-02T11:41:41.951Z,101740.72
2022-11-02T11:42:45.001Z,101741.56
2022-11-02T11:43:48.329Z,101733.41
2022-11-02T11:44:57.811Z,101730.75
2022-11-02T11:46:05.684Z,101720.78
2022-11-02T11:47:08.505Z,101730.25
2022-11-02T11:48:35.823Z,101738.00
2022-11-02T11:50:08.631Z,101735.94
2022-11-02T11:51:27.370Z,101733.00
2022-11-02T11:52:32.805Z,101737.22
2022-11-02T11:53:35.451Z,101732.47
2022-11-02T11:54:39.279Z,101733.06
2022-11-02T11:56:37.291Z,101725.50
2022-11-02T11:57:39.794Z,101725.97
2022-11-02T11:58:50.870Z,101733.47
2022-11-02T11:59:55.286Z,101735.59
2022-11-02T12:01:10.793Z,101734.13
2022-11-02T12:02:25.009Z,101740.91
2022-11-02T12:03:26.692Z,101736.09
2022-11-02T12:04:31.665Z,101733.03
2022-11-02T12:05:46.733Z,101734.47
2022-11-02T12:06:58.920Z,101728.88
2022-11-02T12:08:29.276Z,101731.53
2022-11-02T12:09:37.152Z,101731.53
2022-11-02T12:10:51.360Z,101727.16
2022-11-02T12:12:03.699Z,101727.31
2022-11-02T12:13:18.559Z,101724.63
2022-11-02T12:14:42.834Z,101724.63
2022-11-02T12:16:00.462Z,101718.28
2022-11-02T12:17:29.106Z,101719.97
2022-11-02T12:18:46.278Z,101713.06
2022-11-02T12:20:07.338Z,101710.66
2022-11-02T12:21:38.396Z,101717.25
2022-11-02T12:22:54.651Z,101714.00
2022-11-02T12:24:08.495Z,101723.41
2022-11-02T12:25:27.160Z,101721.13
2022-11-02T12:26:42.248Z,101716.88
2022-11-02T12:27:53.881Z,101717.16
2022-11-02T12:29:08.231Z,101720.09
2022-11-02T12:30:19.118Z,101718.75
2022-11-02T12:31:32.390Z,101716.50
2022-11-02T12:32:49.014Z,101716.75
2022-11-02T12:34:09.354Z,101711.69
2022-11-02T12:35:30.966Z,101712.53
2022-11-02T12:37:31.275Z,101714.34
2022-11-02T12:38:44.913Z,101715.19
2022-11-02T12:40:08.957Z,101712.75
2022-11-02T12:41:15.988Z,101720.94
2022-11-02T12:42:28.200Z,101712.19
2022-11-02T12:43:39.664Z,101715.59
2022-11-02T12:44:54.051Z,101714.47
2022-11-02T12:46:02.008Z,101711.78
2022-11-02T12:47:17.977Z,101714.34
2022-11-02T12:48:31.363Z,101715.06
2022-11-02T12:49:41.418Z,101716.34
2022-11-02T12:50:57.618Z,101716.09
2022-11-02T12:52:12.572Z,101715.00
2022-11-02T12:53:34.953Z,101710.63